Terminal Aerodrome Forecast
Issued by NWS

Home | Current Version | Previous Version | Text Only | Print | Product List | Glossary On
Versions: 1 2 3 4 5 6 7 8 9 10 11 12
000
FTUS42 KTBW 222300
TAFRSW
TAF
KRSW 222326Z 2300/2324 19007KT P6SM BKN250
     FM230600 17004KT 5SM BR SCT015 BKN025
     FM230900 VRB03KT 3SM BR SCT003 BKN012
     FM231500 15007KT 6SM BR SCT012 BKN025=

USA.gov is the U.S. government's official web portal to all federal, state and local government web resources and services.